Time;durP1;ratioP1;P1;durP2;ratioP2;P2;SDS_P1;SDS_P2;PMS_P1;PMS_P2;Temp;Humidity;BMP_temperature;BMP_pressure;BME280_temperature;BME280_humidity;BME280_pressure;Samples;Min_cycle;Max_cycle;Signal;HPM_P1;HPM_P2
2023/06/22 00:01:24;;;;;;;8.98;4.75;;;;;;;20.21;100.00;101770.84;5071246;28;20037;-66
2023/06/22 00:03:53;;;;;;;7.40;4.15;;;;;;;20.22;100.00;101775.19;5071836;28;20127;-66
2023/06/22 00:06:21;;;;;;;8.45;4.60;;;;;;;20.11;100.00;101768.19;5072999;28;20127;-67
2023/06/22 00:08:49;;;;;;;7.95;4.20;;;;;;;20.09;100.00;101770.97;5073318;28;20044;-66
2023/06/22 00:11:17;;;;;;;5.95;3.63;;;;;;;20.02;100.00;101769.84;5070940;28;20064;-66
2023/06/22 00:13:50;;;;;;;6.95;3.70;;;;;;;19.97;100.00;101769.44;5074896;28;20502;-61
2023/06/22 00:16:19;;;;;;;5.63;3.45;;;;;;;20.09;100.00;101770.97;5075211;28;20106;-61
2023/06/22 00:18:48;;;;;;;6.88;3.42;;;;;;;20.07;100.00;101756.94;5073381;28;20514;-61
2023/06/22 00:21:16;;;;;;;7.10;3.83;;;;;;;19.97;100.00;101758.75;5071035;28;20682;-62
2023/06/22 00:23:45;;;;;;;7.07;4.00;;;;;;;19.90;100.00;101763.78;5071325;28;20401;-61
2023/06/22 00:26:13;;;;;;;7.30;4.00;;;;;;;19.80;100.00;101754.94;5074077;28;20044;-61
2023/06/22 00:28:41;;;;;;;8.40;4.10;;;;;;;19.67;100.00;101760.50;5071446;28;20445;-62
2023/06/22 00:31:11;;;;;;;7.20;3.90;;;;;;;19.73;100.00;101761.81;5071192;28;20515;-61
2023/06/22 00:33:39;;;;;;;8.52;4.35;;;;;;;19.81;100.00;101750.44;5071500;28;20403;-66
2023/06/22 00:36:13;;;;;;;7.22;3.92;;;;;;;19.75;100.00;101743.81;5103193;28;20063;-67
2023/06/22 00:38:41;;;;;;;8.13;4.15;;;;;;;19.74;100.00;101742.97;5071514;28;20045;-66
2023/06/22 00:41:09;;;;;;;10.48;4.85;;;;;;;19.72;100.00;101757.44;5070034;28;20048;-66
2023/06/22 00:43:37;;;;;;;8.18;4.25;;;;;;;19.68;100.00;101759.53;5071180;28;20131;-66
2023/06/22 00:46:05;;;;;;;8.68;4.57;;;;;;;19.62;100.00;101749.41;5071536;28;20040;-66
2023/06/22 00:48:36;;;;;;;8.65;4.50;;;;;;;19.61;100.00;101753.06;5071431;28;20044;-66
2023/06/22 00:51:07;;;;;;;9.48;4.22;;;;;;;19.55;100.00;101750.94;5070933;28;20127;-61
2023/06/22 00:53:36;;;;;;;9.15;4.53;;;;;;;19.54;100.00;101754.59;5069665;28;20126;-61
2023/06/22 00:56:06;;;;;;;9.82;5.32;;;;;;;19.44;100.00;101754.56;5063727;28;20396;-61
2023/06/22 01:02:59;;;;;;;8.40;4.72;;;;;;;19.36;100.00;101762.38;5069446;28;20122;-61
2023/06/22 01:05:30;;;;;;;7.90;4.70;;;;;;;19.37;100.00;101758.75;5069573;28;20048;-61
2023/06/22 01:08:06;;;;;;;11.13;5.78;;;;;;;19.38;100.00;101760.44;5071140;28;20115;-61
2023/06/22 01:10:42;;;;;;;7.78;4.90;;;;;;;19.31;100.00;101752.13;5070773;28;20098;-61
2023/06/22 01:13:19;;;;;;;8.75;4.72;;;;;;;19.24;100.00;101748.34;5069691;28;20049;-60
2023/06/22 01:15:52;;;;;;;9.45;5.13;;;;;;;19.27;100.00;101753.38;5069684;28;20143;-60
2023/06/22 01:18:22;;;;;;;8.90;5.50;;;;;;;19.20;100.00;101752.25;5070265;28;20123;-61
2023/06/22 01:20:53;;;;;;;9.98;5.55;;;;;;;19.27;100.00;101749.88;5070661;28;20062;-61
2023/06/22 01:23:28;;;;;;;10.35;5.70;;;;;;;19.21;100.00;101748.59;5070355;28;20041;-65
2023/06/22 01:26:06;;;;;;;10.75;5.80;;;;;;;19.19;100.00;101747.88;5068757;28;20052;-66
2023/06/22 01:28:47;;;;;;;9.00;5.32;;;;;;;19.25;100.00;101742.00;5070636;28;20072;-65
2023/06/22 01:31:18;;;;;;;9.35;5.10;;;;;;;19.16;100.00;101738.34;5069849;28;20079;-66
2023/06/22 01:33:52;;;;;;;8.48;4.82;;;;;;;19.11;100.00;101737.88;5070605;28;20052;-66
2023/06/22 01:36:22;;;;;;;9.23;5.07;;;;;;;19.15;100.00;101733.13;5069868;28;20056;-66
2023/06/22 01:38:51;;;;;;;9.45;5.30;;;;;;;19.11;100.00;101735.22;5070567;28;20102;-66
2023/06/22 01:41:20;;;;;;;8.85;4.75;;;;;;;19.13;100.00;101745.75;5068778;28;20068;-67
2023/06/22 01:43:51;;;;;;;10.00;4.70;;;;;;;19.15;100.00;101741.13;5070351;28;20052;-67
2023/06/22 01:46:20;;;;;;;8.38;4.85;;;;;;;19.20;100.00;101733.59;5069635;28;20525;-66
2023/06/22 01:48:49;;;;;;;7.70;5.05;;;;;;;19.22;100.00;101726.28;5070241;28;20547;-66
2023/06/22 01:51:17;;;;;;;9.07;4.82;;;;;;;19.20;100.00;101722.91;5069627;28;20151;-66
2023/06/22 01:53:47;;;;;;;9.35;5.13;;;;;;;19.16;100.00;101727.66;5070010;28;20135;-66
2023/06/22 01:56:19;;;;;;;7.93;4.78;;;;;;;19.14;100.00;101726.13;5068486;28;20487;-61
2023/06/22 01:58:52;;;;;;;9.05;4.90;;;;;;;19.04;100.00;101731.41;5069803;28;20403;-66
2023/06/22 02:01:25;;;;;;;9.48;4.80;;;;;;;19.03;100.00;101725.25;5068842;28;20063;-61
2023/06/22 02:04:03;;;;;;;8.48;4.78;;;;;;;19.00;100.00;101730.00;5070210;28;20072;-61
2023/06/22 02:06:36;;;;;;;8.00;5.13;;;;;;;18.97;100.00;101739.09;5069514;28;20040;-64
2023/06/22 02:09:09;;;;;;;10.07;5.07;;;;;;;18.97;100.00;101736.44;5068605;28;20052;-61
2023/06/22 02:11:41;;;;;;;8.10;4.68;;;;;;;18.93;100.00;101743.00;5069053;28;20110;-61
2023/06/22 02:14:11;;;;;;;8.75;5.28;;;;;;;18.94;100.00;101738.50;5069410;28;20052;-62
2023/06/22 02:16:40;;;;;;;9.20;5.32;;;;;;;18.88;100.00;101730.09;5069459;28;20430;-59
2023/06/22 02:19:08;;;;;;;10.20;5.18;;;;;;;18.91;100.00;101736.97;5069657;28;20051;-65
2023/06/22 02:21:36;;;;;;;9.60;4.85;;;;;;;18.90;100.00;101733.44;5069368;28;20036;-65
2023/06/22 02:24:05;;;;;;;8.73;5.00;;;;;;;18.92;100.00;101733.31;5069292;28;20044;-60
2023/06/22 02:26:34;;;;;;;8.60;5.07;;;;;;;18.82;100.00;101722.59;5068580;28;20044;-65
2023/06/22 02:29:05;;;;;;;8.93;5.33;;;;;;;18.77;100.00;101723.97;5069657;28;20040;-65
2023/06/22 02:31:35;;;;;;;8.82;5.38;;;;;;;18.79;100.00;101722.00;5069263;28;20102;-65
2023/06/22 02:34:03;;;;;;;8.82;5.15;;;;;;;18.77;100.00;101718.63;5068368;28;20110;-65
2023/06/22 02:36:31;;;;;;;10.13;5.85;;;;;;;18.73;100.00;101712.72;5068811;28;20052;-66
2023/06/22 02:39:01;;;;;;;9.82;5.55;;;;;;;18.76;100.00;101715.13;5069492;28;20053;-61
2023/06/22 02:41:29;;;;;;;9.63;5.53;;;;;;;18.73;100.00;101716.25;5068087;28;20088;-60
2023/06/22 02:43:57;;;;;;;10.98;5.43;;;;;;;18.74;100.00;101712.56;5068194;28;20554;-67
2023/06/22 02:46:26;;;;;;;9.82;5.32;;;;;;;18.72;100.00;101716.38;5068448;28;20036;-61
2023/06/22 02:48:55;;;;;;;9.07;5.85;;;;;;;18.71;100.00;101715.50;5069623;28;20548;-61
2023/06/22 02:51:23;;;;;;;8.77;5.40;;;;;;;18.66;100.00;101720.38;5068817;28;20055;-65
2023/06/22 02:53:57;;;;;;;12.77;6.18;;;;;;;18.69;100.00;101713.94;5069080;28;20048;-67
2023/06/22 02:56:25;;;;;;;9.52;6.03;;;;;;;18.65;100.00;101712.53;5067803;28;20060;-68
2023/06/22 02:58:53;;;;;;;11.15;6.43;;;;;;;18.61;100.00;101705.78;5069033;28;20040;-66
2023/06/22 03:01:24;;;;;;;8.77;6.05;;;;;;;18.52;100.00;101710.91;5066985;28;20046;-66
2023/06/22 03:03:55;;;;;;;10.73;6.60;;;;;;;18.63;100.00;101704.69;5069520;28;20051;-66
2023/06/22 03:06:28;;;;;;;9.98;6.65;;;;;;;18.58;100.00;101707.75;5068817;28;20059;-66
2023/06/22 03:08:58;;;;;;;;;;;;;;;18.56;100.00;101709.69;5069928;28;20387;-66
2023/06/22 03:11:26;;;;;;;10.20;6.50;;;;;;;18.52;100.00;101708.25;5068413;28;20439;-66
2023/06/22 03:13:54;;;;;;;10.55;6.50;;;;;;;18.54;100.00;101710.78;5068775;28;20044;-66
2023/06/22 03:16:23;;;;;;;12.40;6.82;;;;;;;18.55;100.00;101707.16;5067325;28;20127;-66
2023/06/22 03:18:51;;;;;;;11.38;7.50;;;;;;;18.47;100.00;101704.31;5069377;28;20105;-67
2023/06/22 03:21:20;;;;;;;11.10;7.43;;;;;;;18.49;100.00;101700.53;5068737;28;20037;-65
2023/06/22 03:23:48;;;;;;;15.65;8.90;;;;;;;18.42;100.00;101700.22;5068922;28;20044;-66
2023/06/22 03:26:18;;;;;;;11.20;8.50;;;;;;;18.40;100.00;101699.47;5067211;28;20052;-66
2023/06/22 03:28:46;;;;;;;13.05;8.98;;;;;;;18.36;100.00;101695.41;5068276;28;20068;-66
2023/06/22 03:31:14;;;;;;;14.93;8.73;;;;;;;18.40;100.00;101680.84;5067539;28;20041;-66
2023/06/22 03:33:43;;;;;;;16.98;9.80;;;;;;;18.33;100.00;101678.84;5069084;28;20065;-66
2023/06/22 03:36:11;;;;;;;14.52;10.48;;;;;;;18.20;100.00;101679.91;5069815;28;20048;-66
2023/06/22 03:38:40;;;;;;;16.10;10.73;;;;;;;18.16;100.00;101685.59;5072807;28;20048;-66
2023/06/22 03:41:10;;;;;;;14.75;10.38;;;;;;;18.18;100.00;101684.50;5072228;28;20074;-66
2023/06/22 03:43:38;;;;;;;16.10;11.38;;;;;;;18.15;100.00;101686.59;5071978;28;20046;-61
2023/06/22 03:46:06;;;;;;;14.40;10.93;;;;;;;18.20;100.00;101681.69;5071725;28;20127;-61
2023/06/22 03:48:34;;;;;;;16.63;11.90;;;;;;;18.14;100.00;101685.72;5072777;28;20044;-66
2023/06/22 03:51:05;;;;;;;17.00;12.35;;;;;;;18.07;100.00;101684.56;5072948;28;20040;-66
2023/06/22 03:53:33;;;;;;;16.00;12.68;;;;;;;18.12;100.00;101681.50;5071825;28;20060;-66
2023/06/22 03:56:03;;;;;;;16.83;12.57;;;;;;;18.10;100.00;101678.97;5072140;28;20579;-66
2023/06/22 03:58:32;;;;;;;16.70;12.35;;;;;;;18.14;100.00;101677.75;5071460;28;20110;-65
2023/06/22 04:01:01;;;;;;;15.00;12.32;;;;;;;18.13;100.00;101678.72;5070964;28;20145;-61
2023/06/22 04:03:31;;;;;;;16.70;12.93;;;;;;;18.02;100.00;101674.28;5071918;28;20052;-60
2023/06/22 04:05:59;;;;;;;18.40;14.55;;;;;;;18.02;100.00;101682.25;5072342;28;20052;-61
2023/06/22 04:08:27;;;;;;;19.60;14.40;;;;;;;18.02;100.00;101668.97;5071842;28;20952;-61
2023/06/22 04:10:55;;;;;;;17.55;14.45;;;;;;;18.02;100.00;101676.94;5072274;28;20044;-60
2023/06/22 04:13:25;;;;;;;21.70;15.55;;;;;;;18.06;100.00;101682.88;5070333;28;20131;-60
2023/06/22 04:15:53;;;;;;;17.55;15.05;;;;;;;18.09;100.00;101677.28;5071338;28;20079;-60
2023/06/22 04:18:21;;;;;;;20.85;16.25;;;;;;;18.11;100.00;101679.84;5071594;28;20048;-61
2023/06/22 04:20:53;;;;;;;21.38;17.13;;;;;;;18.03;100.00;101678.63;5072035;28;20384;-60
2023/06/22 04:23:21;;;;;;;23.02;18.35;;;;;;;17.99;100.00;101677.22;5071123;28;20044;-60
2023/06/22 04:25:49;;;;;;;24.30;18.10;;;;;;;17.97;100.00;101672.97;5071781;28;20045;-61
2023/06/22 04:28:17;;;;;;;24.08;18.63;;;;;;;17.92;100.00;101676.03;5070861;28;20055;-60
2023/06/22 04:30:47;;;;;;;26.15;19.05;;;;;;;18.00;100.00;101673.59;5071497;28;20406;-61
2023/06/22 04:33:15;;;;;;;23.65;18.20;;;;;;;18.06;100.00;101678.41;5070691;28;20048;-62
2023/06/22 04:35:46;;;;;;;23.83;19.35;;;;;;;18.15;100.00;101678.59;5072347;28;20123;-64
2023/06/22 04:38:14;;;;;;;23.40;17.60;;;;;;;18.18;100.00;101681.00;5071066;28;20060;-66
2023/06/22 04:40:43;;;;;;;21.08;18.70;;;;;;;18.19;100.00;101678.19;5070193;28;20044;-66
2023/06/22 04:43:11;;;;;;;23.40;18.50;;;;;;;18.30;100.00;101677.28;5070644;28;20376;-65
2023/06/22 04:45:42;;;;;;;23.60;19.23;;;;;;;18.28;100.00;101675.72;5070407;28;20098;-66
2023/06/22 04:48:15;;;;;;;24.40;19.48;;;;;;;18.33;100.00;101674.38;5070029;28;20048;-66
2023/06/22 04:50:45;;;;;;;24.88;19.45;;;;;;;18.35;100.00;101676.91;5071737;28;20100;-66
2023/06/22 04:53:13;;;;;;;23.77;20.08;;;;;;;18.40;100.00;101675.53;5070305;28;20048;-67
2023/06/22 04:55:46;;;;;;;26.88;21.13;;;;;;;18.39;100.00;101673.00;5071352;28;20103;-65
2023/06/22 04:58:15;;;;;;;24.27;21.40;;;;;;;18.41;100.00;101666.56;5070487;28;20045;-66
2023/06/22 05:00:44;;;;;;;26.90;20.83;;;;;;;18.43;100.00;101669.09;5071195;28;20048;-66
2023/06/22 05:03:14;;;;;;;24.27;20.40;;;;;;;18.49;100.00;101670.41;5069737;28;20098;-66
2023/06/22 05:05:47;;;;;;;24.23;20.88;;;;;;;18.51;100.00;101668.44;5069773;28;20478;-67
2023/06/22 05:08:16;;;;;;;25.48;21.85;;;;;;;18.56;100.00;101668.91;5070365;28;20419;-66
2023/06/22 05:10:44;;;;;;;26.27;22.30;;;;;;;18.62;100.00;101660.34;5071102;28;20052;-66
2023/06/22 05:13:31;;;;;;;25.35;21.85;;;;;;;18.70;100.00;101660.53;5070357;28;20041;-66
2023/06/22 05:16:01;;;;;;;24.88;21.88;;;;;;;18.77;100.00;101654.69;5069477;28;20123;-66
2023/06/22 05:18:32;;;;;;;25.55;21.00;;;;;;;18.83;100.00;101670.13;5071157;28;20048;-66
2023/06/22 05:21:01;;;;;;;26.20;21.15;;;;;;;18.89;100.00;101667.78;5070909;28;20147;-63
2023/06/22 05:23:32;;;;;;;25.58;21.60;;;;;;;18.88;100.00;101659.94;5069590;28;20066;-67
2023/06/22 05:26:00;;;;;;;25.08;20.65;;;;;;;18.96;100.00;101664.59;5070731;28;20110;-65
2023/06/22 05:28:28;;;;;;;24.13;19.90;;;;;;;19.03;100.00;101666.59;5069745;28;20051;-65
2023/06/22 05:30:56;;;;;;;23.48;19.92;;;;;;;19.13;100.00;101661.31;5069825;28;20163;-67
2023/06/22 05:33:24;;;;;;;22.95;19.92;;;;;;;19.19;100.00;101662.56;5070466;28;20059;-65
2023/06/22 05:35:54;;;;;;;24.23;20.95;;;;;;;19.23;100.00;101656.81;5069254;28;20052;-61
2023/06/22 05:38:22;;;;;;;23.05;19.92;;;;;;;19.31;100.00;101666.81;5069756;28;20567;-66
2023/06/22 05:40:53;;;;;;;22.40;19.17;;;;;;;19.33;100.00;101674.66;5069148;28;20036;-66
2023/06/22 05:43:21;;;;;;;22.67;18.85;;;;;;;19.45;100.00;101678.91;5069324;28;20048;-61
2023/06/22 05:45:49;;;;;;;26.02;19.20;;;;;;;19.50;100.00;101681.16;5069638;28;20070;-62
2023/06/22 05:48:17;;;;;;;22.50;18.83;;;;;;;19.55;100.00;101692.25;5069923;28;20047;-61
2023/06/22 05:50:46;;;;;;;23.27;17.65;;;;;;;19.62;100.00;101692.53;5070379;28;20124;-61
2023/06/22 05:53:15;;;;;;;22.10;18.48;;;;;;;19.65;100.00;101685.09;5069328;28;20503;-61
2023/06/22 05:55:44;;;;;;;22.05;17.27;;;;;;;19.76;100.00;101678.78;5070366;28;20519;-62
2023/06/22 05:58:15;;;;;;;20.15;17.77;;;;;;;19.88;100.00;101687.53;5068271;28;20052;-62
2023/06/22 06:00:44;;;;;;;25.05;19.52;;;;;;;19.97;100.00;101685.84;5069822;28;20119;-61
2023/06/22 06:03:12;;;;;;;21.10;17.42;;;;;;;20.04;100.00;101682.47;5068904;28;20090;-61
2023/06/22 06:05:42;;;;;;;21.58;18.27;;;;;;;20.16;100.00;101680.47;5070236;28;20056;-62
2023/06/22 06:08:12;;;;;;;22.10;18.27;;;;;;;20.24;100.00;101688.63;5068935;28;20426;-62
2023/06/22 06:10:41;;;;;;;20.73;18.52;;;;;;;20.32;100.00;101684.41;5069859;28;20102;-61
2023/06/22 06:13:09;;;;;;;21.13;17.75;;;;;;;20.41;100.00;101692.38;5069150;28;20832;-62
2023/06/22 06:15:38;;;;;;;23.38;18.42;;;;;;;20.51;100.00;101684.34;5069343;28;20500;-61
2023/06/22 06:18:06;;;;;;;23.35;18.90;;;;;;;20.62;100.00;101691.34;5068831;28;20063;-60
2023/06/22 06:20:35;;;;;;;21.08;17.88;;;;;;;20.72;100.00;101694.88;5069806;28;20494;-66
2023/06/22 06:23:03;;;;;;;22.40;18.00;;;;;;;20.76;100.00;101698.06;5067917;28;20453;-64
2023/06/22 06:25:31;;;;;;;21.48;18.73;;;;;;;20.87;100.00;101694.38;5069295;28;20051;-64
2023/06/22 06:28:01;;;;;;;22.27;18.60;;;;;;;20.92;100.00;101684.09;5069009;28;20068;-65
2023/06/22 06:30:29;;;;;;;22.65;18.23;;;;;;;21.04;100.00;101676.72;5068981;28;20048;-64
2023/06/22 06:32:58;;;;;;;19.88;16.25;;;;;;;21.18;100.00;101672.72;5068840;28;20751;-68
2023/06/22 06:35:26;;;;;;;20.13;16.90;;;;;;;21.27;100.00;101675.31;5069794;28;20056;-66
2023/06/22 06:37:54;;;;;;;22.65;18.77;;;;;;;21.34;100.00;101664.84;5068356;28;20086;-65
2023/06/22 06:40:23;;;;;;;21.73;18.05;;;;;;;21.47;100.00;101667.16;5069381;28;20057;-70
2023/06/22 06:42:51;;;;;;;20.38;17.73;;;;;;;21.59;100.00;101667.81;5068752;28;20407;-67
2023/06/22 06:45:22;;;;;;;20.80;16.65;;;;;;;21.63;100.00;101666.50;5068962;28;20087;-72
2023/06/22 06:47:51;;;;;;;20.55;17.52;;;;;;;21.72;100.00;101665.59;5068870;28;20059;-64
2023/06/22 06:50:20;;;;;;;20.80;17.75;;;;;;;21.84;100.00;101665.34;5069028;28;20048;-64
2023/06/22 06:52:49;;;;;;;19.67;17.48;;;;;;;21.96;100.00;101664.09;5068865;28;20140;-65
2023/06/22 06:55:19;;;;;;;24.00;18.15;;;;;;;22.14;100.00;101663.25;5068920;28;20056;-66
2023/06/22 06:57:48;;;;;;;19.80;17.33;;;;;;;22.26;100.00;101662.84;5068913;28;20068;-65
2023/06/22 07:00:17;;;;;;;19.98;16.60;;;;;;;22.41;100.00;101667.63;5068797;28;20048;-65
2023/06/22 07:02:48;;;;;;;19.63;17.10;;;;;;;22.53;100.00;101665.53;5068650;28;20112;-64
2023/06/22 07:05:16;;;;;;;20.40;16.08;;;;;;;22.57;100.00;101662.38;5071983;28;20047;-64
2023/06/22 07:07:45;;;;;;;20.40;16.90;;;;;;;22.63;100.00;101655.53;5072562;28;20379;-67
2023/06/22 07:10:13;;;;;;;19.27;15.82;;;;;;;22.69;100.00;101646.03;5075416;28;20492;-66
2023/06/22 07:12:41;;;;;;;19.50;16.40;;;;;;;22.78;100.00;101651.25;5076321;28;20037;-65
2023/06/22 07:15:11;;;;;;;20.10;16.77;;;;;;;22.86;100.00;101654.97;5076032;28;20056;-66
2023/06/22 07:17:40;;;;;;;18.92;16.10;;;;;;;22.95;100.00;101648.66;5075949;28;20123;-69
2023/06/22 07:20:12;;;;;;;21.70;18.00;;;;;;;23.01;100.00;101637.25;5075428;28;20384;-64
2023/06/22 07:22:42;;;;;;;19.73;17.08;;;;;;;23.12;100.00;101641.47;5072980;28;20052;-65
2023/06/22 07:25:13;;;;;;;18.92;15.88;;;;;;;23.05;100.00;101640.47;5074633;28;20044;-67
2023/06/22 07:27:45;;;;;;;;;;;;;;;23.09;100.00;101634.59;5076703;28;20464;-66
2023/06/22 07:30:13;;;;;;;19.27;16.25;;;;;;;23.12;100.00;101631.63;5076377;28;19962;-66
2023/06/22 07:32:42;;;;;;;19.80;16.17;;;;;;;23.39;100.00;101636.88;5074674;28;20041;-66
2023/06/22 07:35:11;;;;;;;20.38;16.15;;;;;;;23.34;100.00;101636.53;5072867;28;20495;-66
2023/06/22 07:37:40;;;;;;;19.08;15.40;;;;;;;23.38;100.00;101636.06;5073518;28;20055;-69
2023/06/22 07:40:11;;;;;;;19.30;14.30;;;;;;;23.57;100.00;101632.22;5074889;28;20071;-69
2023/06/22 07:42:39;;;;;;;18.50;14.10;;;;;;;23.63;100.00;101631.53;5076241;28;20184;-68
2023/06/22 07:45:09;;;;;;;17.67;15.05;;;;;;;23.69;100.00;101627.31;5075958;28;20036;-68
2023/06/22 07:47:37;;;;;;;18.77;14.90;;;;;;;23.66;100.00;101619.63;5075970;28;20052;-66
2023/06/22 07:50:06;;;;;;;17.23;14.80;;;;;;;23.73;100.00;101614.41;5074438;28;20056;-67
2023/06/22 07:52:36;;;;;;;18.58;13.25;;;;;;;23.78;100.00;101618.28;5072234;28;20053;-68
2023/06/22 07:55:05;;;;;;;15.57;12.82;;;;;;;23.82;100.00;101618.78;5074539;28;20043;-66
2023/06/22 07:57:34;;;;;;;15.02;13.02;;;;;;;23.87;100.00;101620.94;5072400;28;20043;-66
2023/06/22 08:00:11;;;;;;;17.15;13.00;;;;;;;23.95;100.00;101621.78;5073107;28;20071;-67
2023/06/22 08:02:42;;;;;;;16.85;12.80;;;;;;;24.01;100.00;101617.63;5074174;28;20381;-67
2023/06/22 08:05:11;;;;;;;17.00;12.98;;;;;;;23.99;100.00;101610.75;5072009;28;20450;-66
2023/06/22 08:07:44;;;;;;;14.77;12.23;;;;;;;24.19;100.00;101613.91;5072004;28;20048;-61
2023/06/22 08:10:15;;;;;;;16.00;13.13;;;;;;;24.18;100.00;101617.59;5075694;28;20444;-62
2023/06/22 08:12:46;;;;;;;17.98;13.48;;;;;;;24.12;100.00;101608.38;5073960;28;20099;-61
2023/06/22 08:15:15;;;;;;;15.35;12.30;;;;;;;24.11;100.00;101598.63;5071683;28;20423;-61
2023/06/22 08:17:43;;;;;;;15.75;11.73;;;;;;;24.25;100.00;101597.91;5071628;28;20048;-62
2023/06/22 08:20:13;;;;;;;15.38;12.32;;;;;;;24.28;100.00;101586.81;5073786;28;20049;-62
2023/06/22 08:22:44;;;;;;;17.73;13.40;;;;;;;24.36;100.00;101596.69;5071783;28;20052;-61
2023/06/22 08:25:13;;;;;;;15.10;13.00;;;;;;;24.45;100.00;101587.59;5071512;28;20052;-61
2023/06/22 08:27:41;;;;;;;18.65;12.35;;;;;;;24.54;100.00;101582.19;5071360;28;20155;-62
2023/06/22 08:30:11;;;;;;;14.35;12.63;;;;;;;24.59;100.00;101574.44;5069903;28;20045;-62
2023/06/22 08:32:39;;;;;;;15.60;11.77;;;;;;;24.69;100.00;101572.41;5071257;28;20083;-64
2023/06/22 08:35:09;;;;;;;14.65;11.82;;;;;;;24.94;100.00;101558.84;5072257;28;20049;-64
2023/06/22 08:37:39;;;;;;;14.98;11.75;;;;;;;24.97;100.00;101553.09;5074791;28;20060;-63
2023/06/22 08:40:10;;;;;;;14.43;10.65;;;;;;;25.13;100.00;101562.91;5074258;28;20058;-63
2023/06/22 08:42:41;;;;;;;11.98;9.68;;;;;;;25.12;100.00;101559.34;5071493;28;20044;-63
2023/06/22 08:45:11;;;;;;;15.15;10.85;;;;;;;25.26;100.00;101559.59;5070550;28;20118;-62
2023/06/22 08:47:40;;;;;;;13.98;10.50;;;;;;;25.54;100.00;101556.41;5070633;28;20033;-61
2023/06/22 08:50:10;;;;;;;13.75;9.40;;;;;;;25.66;100.00;101557.63;5072147;28;20102;-63
2023/06/22 08:52:41;;;;;;;14.27;10.43;;;;;;;25.69;100.00;101561.78;5073018;28;20196;-62
2023/06/22 08:55:11;;;;;;;13.57;10.35;;;;;;;25.68;100.00;101565.53;5070975;28;20052;-60
2023/06/22 08:57:40;;;;;;;13.40;9.90;;;;;;;25.73;100.00;101566.66;5070757;28;20083;-63
2023/06/22 09:00:19;;;;;;;13.07;10.27;;;;;;;26.04;100.00;101568.41;5073572;28;20547;-61
2023/06/22 09:02:48;;;;;;;11.88;9.55;;;;;;;25.95;100.00;101567.59;5070470;28;20053;-64
2023/06/22 09:05:21;;;;;;;15.03;10.30;;;;;;;25.87;100.00;101558.78;5069407;28;20060;-64
2023/06/22 09:07:50;;;;;;;12.65;9.70;;;;;;;25.98;100.00;101555.63;5069625;28;20056;-63
2023/06/22 09:10:19;;;;;;;11.93;9.27;;;;;;;26.09;100.00;101547.09;5071111;28;20558;-63
2023/06/22 09:12:47;;;;;;;11.52;9.10;;;;;;;26.14;100.00;101544.69;5069107;28;20056;-63
2023/06/22 09:15:16;;;;;;;11.75;8.93;;;;;;;26.44;100.00;101544.66;5070558;28;20041;-64
2023/06/22 09:17:55;;;;;;;11.98;8.50;;;;;;;26.75;100.00;101540.06;5070433;28;20051;-63
2023/06/22 09:20:23;;;;;;;11.18;8.38;;;;;;;26.75;100.00;101546.31;5073318;28;20052;-64
2023/06/22 09:22:52;;;;;;;11.73;8.60;;;;;;;26.86;100.00;101547.66;5068965;28;20058;-65
2023/06/22 09:25:21;;;;;;;11.80;8.20;;;;;;;27.20;100.00;101543.44;5070550;28;20452;-64
2023/06/22 09:27:49;;;;;;;10.90;8.82;;;;;;;27.12;100.00;101535.47;5070380;28;20041;-63
2023/06/22 09:30:17;;;;;;;13.45;8.90;;;;;;;27.13;100.00;101527.19;5070828;28;20044;-68
2023/06/22 09:32:46;;;;;;;12.55;9.48;;;;;;;27.05;100.00;101530.00;5069616;28;20156;-67
2023/06/22 09:35:14;;;;;;;12.43;9.95;;;;;;;26.94;100.00;101527.81;5072890;28;20512;-68
2023/06/22 09:37:45;;;;;;;11.18;8.55;;;;;;;26.94;100.00;101527.81;5070010;28;20400;-65
2023/06/22 09:40:16;;;;;;;11.40;7.78;;;;;;;27.00;100.00;101521.66;5103874;28;20084;-65
2023/06/22 09:42:46;;;;;;;12.75;8.35;;;;;;;27.14;100.00;101526.13;5073588;28;20101;-65
2023/06/22 09:45:14;;;;;;;10.70;7.68;;;;;;;27.36;100.00;101527.97;5070991;28;20060;-67
2023/06/22 09:47:42;;;;;;;10.63;7.85;;;;;;;27.40;100.00;101526.59;5070499;28;20094;-66
2023/06/22 09:50:11;;;;;;;11.20;7.85;;;;;;;27.30;100.00;101535.81;5072862;28;20106;-68
2023/06/22 09:52:39;;;;;;;10.85;8.02;;;;;;;27.15;100.00;101525.09;5070198;28;20064;-67
2023/06/22 09:55:10;;;;;;;10.80;7.40;;;;;;;27.09;100.00;101517.78;5071529;28;20043;-62
2023/06/22 09:57:41;;;;;;;12.13;7.75;;;;;;;26.86;100.00;101520.69;5069754;28;20099;-63
2023/06/22 10:00:13;;;;;;;9.85;7.47;;;;;;;26.92;100.00;101519.06;5070898;28;20056;-65
2023/06/22 10:02:42;;;;;;;10.70;7.10;;;;;;;26.90;100.00;101513.03;5068995;28;20048;-66
2023/06/22 10:05:11;;;;;;;10.52;7.13;;;;;;;26.90;100.00;101521.97;5069689;28;20040;-66
2023/06/22 10:07:42;;;;;;;12.00;7.80;;;;;;;26.85;100.00;101535.19;5070197;28;20048;-66
2023/06/22 10:10:11;;;;;;;9.48;7.20;;;;;;;26.46;100.00;101533.69;5070241;28;20059;-66
2023/06/22 10:12:43;;;;;;;8.77;6.88;;;;;;;26.51;100.00;101525.88;5069912;28;20051;-62
2023/06/22 10:15:13;;;;;;;10.67;7.60;;;;;;;26.58;100.00;101525.94;5070010;28;20041;-62
2023/06/22 10:17:41;;;;;;;10.20;7.65;;;;;;;26.56;100.00;101527.97;5070259;28;20040;-60
2023/06/22 10:20:12;;;;;;;10.32;6.90;;;;;;;26.52;100.00;101522.16;5071019;28;20341;-62
2023/06/22 10:22:41;;;;;;;10.50;7.05;;;;;;;26.42;100.00;101522.44;5069767;28;20385;-58
2023/06/22 10:25:11;;;;;;;10.40;7.13;;;;;;;26.36;100.00;101515.09;5070165;28;20074;-60
2023/06/22 10:27:40;;;;;;;10.70;6.45;;;;;;;26.41;100.00;101512.69;5070611;28;20052;-55
2023/06/22 10:30:12;;;;;;;10.18;6.45;;;;;;;26.37;100.00;101519.47;5069016;28;20063;-61
2023/06/22 10:32:43;;;;;;;9.52;6.85;;;;;;;26.40;100.00;101511.00;5069581;28;20048;-63
2023/06/22 10:35:13;;;;;;;8.82;6.05;;;;;;;26.37;100.00;101510.53;5069511;28;20106;-64
2023/06/22 10:37:43;;;;;;;9.60;6.22;;;;;;;26.34;100.00;101511.75;5069358;28;20045;-62
2023/06/22 10:40:13;;;;;;;9.38;6.30;;;;;;;26.21;100.00;101500.81;5069459;28;20127;-58
2023/06/22 10:42:41;;;;;;;10.35;5.88;;;;;;;26.14;100.00;101503.44;5069787;28;20086;-59
2023/06/22 10:45:10;;;;;;;9.27;6.60;;;;;;;26.12;100.00;101506.31;5071866;28;20503;-61
2023/06/22 10:47:38;;;;;;;10.07;6.55;;;;;;;26.04;100.00;101506.41;5072520;28;20052;-63
2023/06/22 10:50:08;;;;;;;11.35;6.50;;;;;;;26.05;100.00;101510.75;5070615;28;20500;-65
2023/06/22 10:52:37;;;;;;;10.77;6.68;;;;;;;26.04;100.00;101505.56;5068416;28;20061;-59
2023/06/22 10:55:10;;;;;;;10.48;6.20;;;;;;;26.12;100.00;101500.94;5068832;28;20041;-62
2023/06/22 10:57:39;;;;;;;9.35;6.53;;;;;;;26.02;100.00;101500.34;5070820;28;20071;-60
2023/06/22 11:00:11;;;;;;;11.38;7.00;;;;;;;25.90;100.00;101505.34;5070678;28;20036;-60
2023/06/22 11:02:39;;;;;;;12.32;6.75;;;;;;;25.78;100.00;101501.44;5068565;28;20045;-60
2023/06/22 11:05:11;;;;;;;10.07;7.03;;;;;;;25.65;100.00;101502.91;5069082;28;20561;-61
2023/06/22 11:07:43;;;;;;;10.15;7.32;;;;;;;25.52;100.00;101493.81;5068746;28;20044;-61
2023/06/22 11:10:17;;;;;;;10.93;7.65;;;;;;;25.54;100.00;101491.78;5068609;28;20551;-61
2023/06/22 11:12:45;;;;;;;10.45;6.93;;;;;;;25.56;100.00;101492.41;5068684;28;20048;-62
2023/06/22 11:15:13;;;;;;;10.48;7.30;;;;;;;25.38;100.00;101493.59;5067270;28;20050;-61
2023/06/22 11:17:41;;;;;;;10.70;7.50;;;;;;;25.45;100.00;101482.94;5071715;28;20491;-61
2023/06/22 11:20:12;;;;;;;11.77;7.03;;;;;;;25.38;100.00;101480.13;5068440;28;20049;-62
2023/06/22 11:22:41;;;;;;;10.27;7.28;;;;;;;25.36;100.00;101478.63;5069572;28;20090;-60